Time;durP1;ratioP1;P1;durP2;ratioP2;P2;SDS_P1;SDS_P2;PMS_P1;PMS_P2;Temp;Humidity;BMP_temperature;BMP_pressure;BME280_temperature;BME280_humidity;BME280_pressure;Samples;Min_cycle;Max_cycle;Signal;HPM_P1;HPM_P2
2023/12/07 00:00:06;;;;;;;34.87;19.73;;;;;;;;;;5040088;28;20538;-80
2023/12/07 00:02:34;;;;;;;40.17;20.83;;;;;;;;;;5041463;28;20472;-80
2023/12/07 00:05:02;;;;;;;44.00;22.80;;;;;;;;;;5040883;28;20545;-80
2023/12/07 00:07:30;;;;;;;42.80;22.83;;;;;;;;;;5039722;28;20464;-80
2023/12/07 00:09:57;;;;;;;48.67;21.97;;;;;;;;;;5042167;28;20453;-80
2023/12/07 00:12:27;;;;;;;45.90;22.87;;;;;;;;;;5040675;28;20451;-81
2023/12/07 00:14:55;;;;;;;43.37;21.40;;;;;;;;;;5044595;28;20457;-81
2023/12/07 00:17:23;;;;;;;45.37;22.00;;;;;;;;;;5046668;28;20504;-81
2023/12/07 00:19:53;;;;;;;48.37;24.87;;;;;;;;;;5045881;28;20811;-81
2023/12/07 00:22:21;;;;;;;41.60;19.60;;;;;;;;;;5047575;28;20461;-81
2023/12/07 00:24:49;;;;;;;46.67;22.43;;;;;;;;;;5047142;28;20455;-79
2023/12/07 00:27:17;;;;;;;42.37;21.70;;;;;;;;;;5043651;28;20455;-81
2023/12/07 00:29:46;;;;;;;42.77;21.07;;;;;;;;;;5041999;28;20461;-81
2023/12/07 00:32:14;;;;;;;44.03;22.83;;;;;;;;;;5041591;28;20456;-79
2023/12/07 00:34:41;;;;;;;49.13;23.63;;;;;;;;;;5044310;28;20436;-79
2023/12/07 00:37:09;;;;;;;45.77;22.57;;;;;;;;;;5046912;28;20739;-80
2023/12/07 00:39:37;;;;;;;39.13;20.63;;;;;;;;;;5049118;28;21001;-80
2023/12/07 00:42:05;;;;;;;48.13;23.80;;;;;;;;;;5048315;28;20525;-80
2023/12/07 00:44:33;;;;;;;46.33;21.80;;;;;;;;;;5047633;28;20453;-79
2023/12/07 00:47:02;;;;;;;47.87;21.97;;;;;;;;;;5043526;28;20486;-80
2023/12/07 00:49:30;;;;;;;41.63;20.93;;;;;;;;;;5042384;28;20461;-80
2023/12/07 00:51:58;;;;;;;48.37;23.07;;;;;;;;;;5043416;28;20453;-78
2023/12/07 00:54:33;;;;;;;44.23;21.80;;;;;;;;;;5043111;28;20459;-79
2023/12/07 00:57:00;;;;;;;47.87;19.60;;;;;;;;;;5043285;28;20562;-80
2023/12/07 00:59:33;;;;;;;47.20;21.63;;;;;;;;;;5042812;28;20580;-79
2023/12/07 01:02:02;;;;;;;49.70;24.00;;;;;;;;;;5042731;28;20464;-79
2023/12/07 01:04:31;;;;;;;45.50;23.10;;;;;;;;;;5043735;28;20714;-78
2023/12/07 01:06:58;;;;;;;45.73;23.83;;;;;;;;;;5050731;28;20474;-80
2023/12/07 01:09:31;;;;;;;41.50;19.60;;;;;;;;;;5049812;28;20469;-80
2023/12/07 01:11:59;;;;;;;38.90;20.47;;;;;;;;;;5049546;28;20494;-81
2023/12/07 01:14:31;;;;;;;43.73;21.03;;;;;;;;;;5049873;28;20534;-81
2023/12/07 01:16:58;;;;;;;44.83;22.13;;;;;;;;;;5049429;28;20796;-81
2023/12/07 01:19:28;;;;;;;38.93;20.27;;;;;;;;;;5048911;28;20739;-81
2023/12/07 01:21:55;;;;;;;39.80;20.27;;;;;;;;;;5050721;28;20465;-82
2023/12/07 01:24:23;;;;;;;41.87;19.97;;;;;;;;;;5050678;28;20457;-82
2023/12/07 01:26:51;;;;;;;41.17;20.10;;;;;;;;;;5047711;28;20527;-80
2023/12/07 01:29:19;;;;;;;37.87;21.23;;;;;;;;;;5047245;28;20462;-80
2023/12/07 01:31:46;;;;;;;37.77;20.50;;;;;;;;;;5046574;28;20460;-80
2023/12/07 01:34:15;;;;;;;40.03;19.43;;;;;;;;;;5047267;28;20457;-80
2023/12/07 01:36:44;;;;;;;34.97;19.63;;;;;;;;;;5049874;28;20915;-81
2023/12/07 01:39:12;;;;;;;35.57;19.17;;;;;;;;;;5047207;28;20929;-80
2023/12/07 01:41:40;;;;;;;37.80;21.03;;;;;;;;;;5046983;28;20464;-79
2023/12/07 01:44:08;;;;;;;34.30;19.90;;;;;;;;;;5046280;28;20466;-82
2023/12/07 01:46:36;;;;;;;37.17;18.20;;;;;;;;;;5045975;28;20458;-81
2023/12/07 01:49:04;;;;;;;36.07;19.33;;;;;;;;;;5046519;28;20694;-79
2023/12/07 01:51:32;;;;;;;37.30;18.63;;;;;;;;;;5046992;28;20442;-80
2023/12/07 01:54:01;;;;;;;37.60;19.63;;;;;;;;;;5046866;28;20450;-79
2023/12/07 01:56:29;;;;;;;36.33;19.30;;;;;;;;;;5049813;28;20471;-79
2023/12/07 01:58:57;;;;;;;34.97;18.90;;;;;;;;;;5047395;28;20520;-79
2023/12/07 02:01:25;;;;;;;30.93;18.20;;;;;;;;;;5044623;28;20763;-79
2023/12/07 02:03:53;;;;;;;32.30;17.63;;;;;;;;;;5046312;28;20449;-80
2023/12/07 02:06:21;;;;;;;35.40;19.23;;;;;;;;;;5049033;28;20447;-79
2023/12/07 02:08:49;;;;;;;34.10;18.10;;;;;;;;;;5047182;28;20467;-80
2023/12/07 02:11:18;;;;;;;34.27;18.40;;;;;;;;;;5048739;28;20457;-81
2023/12/07 02:13:46;;;;;;;36.00;21.30;;;;;;;;;;5049981;28;20439;-81
2023/12/07 02:16:17;;;;;;;38.13;19.80;;;;;;;;;;5055356;28;20483;-80
2023/12/07 02:18:47;;;;;;;37.00;21.60;;;;;;;;;;5055511;28;20511;-80
2023/12/07 02:21:17;;;;;;;31.83;18.93;;;;;;;;;;5054032;28;20818;-81
2023/12/07 02:23:46;;;;;;;32.40;17.90;;;;;;;;;;5054532;28;20433;-80
2023/12/07 02:26:51;;;;;;;39.73;20.90;;;;;;;;;;5053887;28;20640;-82
2023/12/07 02:29:20;;;;;;;35.90;18.73;;;;;;;;;;5047463;28;20473;-80
2023/12/07 02:31:48;;;;;;;38.03;20.40;;;;;;;;;;5044870;28;20448;-79
2023/12/07 02:34:16;;;;;;;39.90;21.37;;;;;;;;;;5047505;28;20453;-81
2023/12/07 02:36:45;;;;;;;47.30;22.37;;;;;;;;;;5049483;28;20452;-80
2023/12/07 02:39:14;;;;;;;44.57;21.70;;;;;;;;;;5047435;28;20513;-80
2023/12/07 02:41:42;;;;;;;49.23;23.57;;;;;;;;;;5049366;28;20533;-80
2023/12/07 02:44:10;;;;;;;48.60;24.60;;;;;;;;;;5048995;28;20485;-80
2023/12/07 02:46:39;;;;;;;48.13;21.47;;;;;;;;;;5048938;28;20461;-80
2023/12/07 02:49:07;;;;;;;57.60;24.70;;;;;;;;;;5047925;28;20459;-79
2023/12/07 02:51:35;;;;;;;59.50;24.10;;;;;;;;;;5045881;28;20457;-79
2023/12/07 02:54:02;;;;;;;71.43;23.00;;;;;;;;;;5044687;28;20476;-81
2023/12/07 02:56:30;;;;;;;55.77;24.53;;;;;;;;;;5045547;28;20468;-79
2023/12/07 02:58:58;;;;;;;64.47;24.60;;;;;;;;;;5044960;28;20505;-80
2023/12/07 03:01:26;;;;;;;64.60;23.77;;;;;;;;;;5044526;28;20458;-81
2023/12/07 03:03:55;;;;;;;60.20;24.03;;;;;;;;;;5050032;28;20510;-81
2023/12/07 03:06:23;;;;;;;63.00;25.13;;;;;;;;;;5049512;28;20458;-81
2023/12/07 03:08:51;;;;;;;65.03;26.37;;;;;;;;;;5048103;28;20468;-80
2023/12/07 03:11:21;;;;;;;69.10;24.67;;;;;;;;;;5049265;28;20464;-80
2023/12/07 03:13:49;;;;;;;71.37;25.23;;;;;;;;;;5050000;28;20831;-81
2023/12/07 03:16:16;;;;;;;65.03;26.27;;;;;;;;;;5049218;28;20467;-80
2023/12/07 03:18:44;;;;;;;73.90;24.33;;;;;;;;;;5049270;28;20924;-80
2023/12/07 03:21:13;;;;;;;69.17;27.60;;;;;;;;;;5049271;28;20509;-80
2023/12/07 03:23:41;;;;;;;71.47;26.10;;;;;;;;;;5047815;28;20452;-80
2023/12/07 03:26:12;;;;;;;61.50;24.93;;;;;;;;;;5044178;28;20449;-81
2023/12/07 03:28:40;;;;;;;63.57;26.87;;;;;;;;;;5042420;28;20437;-81
2023/12/07 03:31:07;;;;;;;66.07;25.10;;;;;;;;;;5042281;28;20462;-79
2023/12/07 03:33:35;;;;;;;62.20;24.67;;;;;;;;;;5042955;28;20747;-79
2023/12/07 03:36:03;;;;;;;59.13;25.63;;;;;;;;;;5043146;28;20460;-80
2023/12/07 03:38:32;;;;;;;78.00;28.83;;;;;;;;;;5044348;28;20523;-81
2023/12/07 03:41:00;;;;;;;65.80;25.03;;;;;;;;;;5046439;28;20452;-80
2023/12/07 03:43:28;;;;;;;69.73;28.37;;;;;;;;;;5047661;28;20440;-81
2023/12/07 03:45:56;;;;;;;59.57;25.83;;;;;;;;;;5046989;28;20483;-80
2023/12/07 03:48:23;;;;;;;59.07;22.10;;;;;;;;;;5047195;28;20475;-79
2023/12/07 03:50:51;;;;;;;63.70;24.60;;;;;;;;;;5047275;28;20465;-79
2023/12/07 03:53:19;;;;;;;68.87;26.43;;;;;;;;;;5046687;28;20461;-80
2023/12/07 03:55:48;;;;;;;57.40;25.30;;;;;;;;;;5050364;28;20453;-80
2023/12/07 03:58:16;;;;;;;63.83;24.53;;;;;;;;;;5048582;28;20968;-81
2023/12/07 04:00:47;;;;;;;68.23;26.90;;;;;;;;;;5045937;28;20563;-82
2023/12/07 04:03:14;;;;;;;53.53;26.03;;;;;;;;;;5047972;28;20460;-80
2023/12/07 04:05:42;;;;;;;54.90;23.70;;;;;;;;;;5043701;28;20529;-80
2023/12/07 04:08:10;;;;;;;59.50;23.80;;;;;;;;;;5043909;28;20450;-80
2023/12/07 04:10:38;;;;;;;63.13;25.93;;;;;;;;;;5044627;28;20448;-80
2023/12/07 04:13:07;;;;;;;60.80;25.33;;;;;;;;;;5045554;28;20457;-80
2023/12/07 04:15:37;;;;;;;61.53;24.53;;;;;;;;;;5046842;28;20471;-81
2023/12/07 04:18:04;;;;;;;59.20;26.40;;;;;;;;;;5046721;28;20523;-80
2023/12/07 04:20:32;;;;;;;50.47;22.37;;;;;;;;;;5043556;28;20889;-80
2023/12/07 04:23:00;;;;;;;58.27;24.63;;;;;;;;;;5042397;28;20448;-80
2023/12/07 04:25:27;;;;;;;60.00;23.90;;;;;;;;;;5043520;28;20437;-79
2023/12/07 04:27:58;;;;;;;60.93;25.97;;;;;;;;;;5038780;28;20453;-80
2023/12/07 04:30:27;;;;;;;50.03;22.10;;;;;;;;;;5039539;28;20786;-80
2023/12/07 04:32:54;;;;;;;66.17;24.87;;;;;;;;;;5038196;28;20726;-79
2023/12/07 04:35:22;;;;;;;54.83;24.70;;;;;;;;;;5039704;28;20456;-80
2023/12/07 04:37:50;;;;;;;56.70;23.70;;;;;;;;;;5028811;28;20979;-79
2023/12/07 04:40:17;;;;;;;52.23;24.13;;;;;;;;;;5015830;28;20551;-78
2023/12/07 04:42:45;;;;;;;53.43;21.23;;;;;;;;;;5017034;28;20474;-80
2023/12/07 04:45:13;;;;;;;55.40;23.00;;;;;;;;;;5018463;28;20622;-80
2023/12/07 04:47:46;;;;;;;56.03;25.83;;;;;;;;;;5023530;28;20477;-79
2023/12/07 04:50:15;;;;;;;54.77;25.13;;;;;;;;;;5020728;28;20451;-79
2023/12/07 04:52:43;;;;;;;53.47;24.17;;;;;;;;;;5022293;28;20477;-81
2023/12/07 04:55:11;;;;;;;58.17;25.97;;;;;;;;;;5026870;28;20453;-80
2023/12/07 04:57:39;;;;;;;54.37;23.80;;;;;;;;;;5021405;28;20461;-79
2023/12/07 05:00:09;;;;;;;58.57;25.77;;;;;;;;;;5020550;28;20890;-80
2023/12/07 05:02:37;;;;;;;60.30;25.00;;;;;;;;;;5018449;28;20462;-80
2023/12/07 05:05:07;;;;;;;54.27;25.47;;;;;;;;;;5020176;28;20451;-78
2023/12/07 05:07:34;;;;;;;57.27;26.90;;;;;;;;;;5019565;28;20465;-80
2023/12/07 05:10:06;;;;;;;57.70;25.37;;;;;;;;;;5021018;28;20457;-79
2023/12/07 05:12:33;;;;;;;52.90;23.80;;;;;;;;;;5022179;28;20461;-81
2023/12/07 05:15:02;;;;;;;53.07;25.80;;;;;;;;;;5020640;28;20468;-80
2023/12/07 05:17:30;;;;;;;58.50;24.70;;;;;;;;;;5020777;28;20901;-80
2023/12/07 05:19:58;;;;;;;69.10;28.73;;;;;;;;;;5019430;28;20451;-80
2023/12/07 05:22:27;;;;;;;71.93;27.87;;;;;;;;;;5018725;28;20454;-80
2023/12/07 05:24:54;;;;;;;59.97;25.40;;;;;;;;;;5020471;28;20844;-81
2023/12/07 05:27:22;;;;;;;53.60;23.60;;;;;;;;;;5021639;28;20526;-80
2023/12/07 05:29:50;;;;;;;55.07;26.23;;;;;;;;;;5021737;28;20446;-81
2023/12/07 05:32:17;;;;;;;61.20;28.07;;;;;;;;;;5019365;28;20456;-79
2023/12/07 05:34:45;;;;;;;67.67;26.60;;;;;;;;;;5018944;28;20464;-80
2023/12/07 05:37:13;;;;;;;56.67;24.83;;;;;;;;;;5017974;28;20476;-81
2023/12/07 05:39:42;;;;;;;53.80;23.67;;;;;;;;;;5018428;28;20564;-80
2023/12/07 05:42:09;;;;;;;51.17;25.40;;;;;;;;;;5018661;28;20451;-80
2023/12/07 05:44:39;;;;;;;64.40;26.50;;;;;;;;;;5018405;28;20451;-80
2023/12/07 05:47:08;;;;;;;58.10;24.53;;;;;;;;;;5023340;28;20584;-79
2023/12/07 05:49:36;;;;;;;53.60;25.80;;;;;;;;;;5022364;28;20476;-80
2023/12/07 05:52:03;;;;;;;56.23;24.77;;;;;;;;;;5024206;28;20458;-78
2023/12/07 05:54:31;;;;;;;61.60;27.97;;;;;;;;;;5026587;28;20472;-81
2023/12/07 05:57:00;;;;;;;58.30;27.90;;;;;;;;;;5028056;28;20444;-80
2023/12/07 05:59:28;;;;;;;60.87;27.93;;;;;;;;;;5026857;28;20625;-80
2023/12/07 06:01:56;;;;;;;61.23;26.47;;;;;;;;;;5026691;28;20454;-80
2023/12/07 06:04:24;;;;;;;59.03;25.80;;;;;;;;;;5024545;28;20461;-78
2023/12/07 06:06:52;;;;;;;57.50;27.70;;;;;;;;;;5025741;28;20455;-79
2023/12/07 06:09:20;;;;;;;54.97;26.73;;;;;;;;;;5024464;28;20478;-78
2023/12/07 06:11:47;;;;;;;56.80;25.13;;;;;;;;;;5020158;28;20812;-78
2023/12/07 06:14:16;;;;;;;63.10;26.37;;;;;;;;;;5019280;28;20464;-79
2023/12/07 06:16:44;;;;;;;59.80;24.90;;;;;;;;;;5022018;28;20462;-80
2023/12/07 06:19:12;;;;;;;54.70;25.97;;;;;;;;;;5021608;28;20501;-80
2023/12/07 06:21:40;;;;;;;52.57;24.20;;;;;;;;;;5020195;28;21037;-79
2023/12/07 06:24:10;;;;;;;52.97;27.00;;;;;;;;;;5018620;28;20455;-81
2023/12/07 06:26:37;;;;;;;52.27;24.70;;;;;;;;;;5021095;28;20486;-79
2023/12/07 06:29:07;;;;;;;56.73;24.87;;;;;;;;;;5023846;28;20454;-81
2023/12/07 06:31:36;;;;;;;52.27;26.83;;;;;;;;;;5026049;28;20499;-80
2023/12/07 06:34:07;;;;;;;58.17;25.90;;;;;;;;;;5028419;28;20437;-78
2023/12/07 06:36:35;;;;;;;53.80;25.70;;;;;;;;;;5030640;28;20455;-80
2023/12/07 06:39:04;;;;;;;57.50;27.00;;;;;;;;;;5025156;28;20562;-79
2023/12/07 06:41:31;;;;;;;59.20;25.10;;;;;;;;;;5017411;28;20461;-80
2023/12/07 06:43:59;;;;;;;54.03;24.57;;;;;;;;;;5020886;28;20461;-80
2023/12/07 06:46:27;;;;;;;49.10;24.67;;;;;;;;;;5016852;28;20453;-80
2023/12/07 06:48:56;;;;;;;56.03;26.30;;;;;;;;;;5013452;28;20630;-79
2023/12/07 06:51:23;;;;;;;55.47;25.60;;;;;;;;;;5015173;28;20486;-79
2023/12/07 06:53:51;;;;;;;57.17;24.40;;;;;;;;;;5014392;28;20484;-79
2023/12/07 06:56:19;;;;;;;58.93;27.00;;;;;;;;;;5016661;28;20457;-78
2023/12/07 06:58:47;;;;;;;61.37;26.10;;;;;;;;;;5020001;28;20969;-80
2023/12/07 07:01:16;;;;;;;50.77;22.80;;;;;;;;;;5020637;28;20466;-79
2023/12/07 07:03:44;;;;;;;48.90;24.57;;;;;;;;;;5020928;28;20914;-79
2023/12/07 07:06:13;;;;;;;55.93;25.40;;;;;;;;;;5016627;28;20470;-79
2023/12/07 07:08:41;;;;;;;58.17;25.17;;;;;;;;;;5016217;28;20473;-80
2023/12/07 07:11:14;;;;;;;48.70;26.47;;;;;;;;;;5012764;28;20461;-80
2023/12/07 07:13:42;;;;;;;44.70;24.47;;;;;;;;;;5016318;28;20462;-79
2023/12/07 07:16:10;;;;;;;51.90;24.37;;;;;;;;;;5016944;28;20475;-80
2023/12/07 07:18:39;;;;;;;47.00;22.40;;;;;;;;;;5022723;28;20497;-81
2023/12/07 07:21:07;;;;;;;58.00;26.60;;;;;;;;;;4997162;28;20460;-81
2023/12/07 07:23:48;;;;;;;47.40;26.63;;;;;;;;;;4999730;28;20484;-78
2023/12/07 07:26:17;;;;;;;46.93;25.20;;;;;;;;;;4997582;28;21090;-80
2023/12/07 07:28:44;;;;;;;56.23;23.93;;;;;;;;;;4996441;28;20556;-80
2023/12/07 07:31:15;;;;;;;54.43;28.10;;;;;;;;;;5003005;28;20461;-79
2023/12/07 07:33:51;;;;;;;49.60;25.57;;;;;;;;;;5005491;28;21195;-80
2023/12/07 07:36:20;;;;;;;54.10;25.83;;;;;;;;;;5010637;28;20548;-79
2023/12/07 07:38:49;;;;;;;45.77;24.20;;;;;;;;;;5013696;28;20504;-79
2023/12/07 07:41:18;;;;;;;41.70;24.37;;;;;;;;;;5020214;28;20446;-79
2023/12/07 07:43:46;;;;;;;51.93;26.70;;;;;;;;;;5019248;28;20465;-78
2023/12/07 07:46:16;;;;;;;44.33;22.90;;;;;;;;;;5019622;28;20458;-79
2023/12/07 07:48:44;;;;;;;44.70;25.30;;;;;;;;;;5015506;28;20477;-79
2023/12/07 07:51:12;;;;;;;43.33;22.43;;;;;;;;;;5018775;28;20466;-80
2023/12/07 07:53:41;;;;;;;48.63;27.20;;;;;;;;;;5017018;28;20476;-79
2023/12/07 07:56:16;;;;;;;52.13;25.87;;;;;;;;;;5018519;28;20511;-79
2023/12/07 07:58:44;;;;;;;45.47;25.37;;;;;;;;;;5015621;28;20625;-79
2023/12/07 08:01:14;;;;;;;46.40;25.73;;;;;;;;;;5020510;28;20453;-80
2023/12/07 08:03:50;;;;;;;43.33;23.73;;;;;;;;;;5018272;28;20508;-79
2023/12/07 08:06:18;;;;;;;50.23;25.80;;;;;;;;;;5016824;28;20750;-79
2023/12/07 08:08:50;;;;;;;49.63;29.10;;;;;;;;;;5018317;28;20446;-79
2023/12/07 08:11:23;;;;;;;40.77;23.30;;;;;;;;;;5021695;28;20468;-77
2023/12/07 08:13:51;;;;;;;51.53;25.73;;;;;;;;;;5019908;28;20495;-79
2023/12/07 08:16:19;;;;;;;50.37;23.90;;;;;;;;;;5017896;28;20506;-79
2023/12/07 08:18:47;;;;;;;47.97;25.37;;;;;;;;;;5016002;28;20849;-82
2023/12/07 08:21:20;;;;;;;48.10;24.20;;;;;;;;;;5015637;28;20457;-80
2023/12/07 08:23:48;;;;;;;46.93;26.30;;;;;;;;;;5013945;28;20481;-81
2023/12/07 08:26:16;;;;;;;40.53;22.60;;;;;;;;;;5019115;28;20525;-80
2023/12/07 08:28:46;;;;;;;46.40;24.73;;;;;;;;;;5017449;28;20771;-79
2023/12/07 08:31:14;;;;;;;43.97;24.80;;;;;;;;;;5017854;28;20470;-79
2023/12/07 08:33:42;;;;;;;49.30;25.23;;;;;;;;;;5013572;28;20465;-77
2023/12/07 08:36:11;;;;;;;43.70;23.67;;;;;;;;;;5018835;28;20457;-80
2023/12/07 08:38:39;;;;;;;47.03;27.00;;;;;;;;;;5026913;28;20588;-80
2023/12/07 08:41:07;;;;;;;49.10;24.83;;;;;;;;;;5036028;28;20750;-80
2023/12/07 08:43:34;;;;;;;44.97;24.13;;;;;;;;;;5037051;28;20460;-80
2023/12/07 08:46:07;;;;;;;43.27;24.03;;;;;;;;;;5040170;28;20484;-81
2023/12/07 08:48:34;;;;;;;49.87;26.80;;;;;;;;;;5040018;28;20465;-81
2023/12/07 08:51:02;;;;;;;43.50;25.17;;;;;;;;;;5039606;28;20880;-79
2023/12/07 08:53:31;;;;;;;40.17;23.43;;;;;;;;;;5037094;28;20464;-79
2023/12/07 08:55:58;;;;;;;49.20;25.77;;;;;;;;;;5038876;28;20803;-80
2023/12/07 08:58:27;;;;;;;52.80;26.43;;;;;;;;;;5039045;28;20476;-79
2023/12/07 09:00:55;;;;;;;44.27;26.43;;;;;;;;;;5041776;28;20561;-81
2023/12/07 09:03:31;;;;;;;47.57;26.23;;;;;;;;;;5020321;28;20825;-79
2023/12/07 09:06:05;;;;;;;46.90;24.80;;;;;;;;;;5022630;28;20559;-79
2023/12/07 09:08:33;;;;;;;46.67;24.10;;;;;;;;;;5025450;28;20492;-79
2023/12/07 09:11:16;;;;;;;47.70;24.43;;;;;;;;;;5024288;28;20512;-80
2023/12/07 09:13:56;;;;;;;55.63;26.53;;;;;;;;;;5026275;28;20463;-81
2023/12/07 09:16:26;;;;;;;45.67;26.00;;;;;;;;;;5023055;28;20450;-78
2023/12/07 09:18:59;;;;;;;45.27;25.67;;;;;;;;;;5026843;28;20453;-80
2023/12/07 09:21:36;;;;;;;42.03;25.47;;;;;;;;;;5019591;28;20492;-81
2023/12/07 09:24:09;;;;;;;45.43;25.83;;;;;;;;;;5032245;28;20453;-81
2023/12/07 09:26:40;;;;;;;43.40;25.63;;;;;;;;;;5020742;28;20457;-79
2023/12/07 09:29:13;;;;;;;44.37;25.63;;;;;;;;;;5038502;28;20804;-81
2023/12/07 09:31:45;;;;;;;45.83;24.60;;;;;;;;;;5039606;28;20462;-80
2023/12/07 09:37:08;;;;;;;48.33;27.20;;;;;;;;;;5019684;28;20889;-81
2023/12/07 09:39:42;;;;;;;42.70;25.60;;;;;;;;;;5030871;28;20544;-80
2023/12/07 09:42:10;;;;;;;51.73;26.67;;;;;;;;;;5004490;28;20465;-81
2023/12/07 09:44:44;;;;;;;46.30;25.23;;;;;;;;;;5012169;28;20509;-81
2023/12/07 09:47:15;;;;;;;50.27;27.10;;;;;;;;;;5016105;28;20519;-80
2023/12/07 09:49:47;;;;;;;44.20;25.70;;;;;;;;;;5020453;28;20454;-80
2023/12/07 09:52:20;;;;;;;52.70;28.00;;;;;;;;;;5030501;28;20462;-80
2023/12/07 09:54:48;;;;;;;51.17;27.23;;;;;;;;;;5030855;28;20456;-80
2023/12/07 09:57:17;;;;;;;50.70;25.77;;;;;;;;;;5035133;28;20537;-80
2023/12/07 09:59:50;;;;;;;47.23;27.17;;;;;;;;;;5028042;28;20612;-79
2023/12/07 10:02:31;;;;;;;52.47;25.67;;;;;;;;;;5032944;28;20528;-81
2023/12/07 10:05:09;;;;;;;54.60;27.97;;;;;;;;;;5028382;28;20457;-79
2023/12/07 10:07:39;;;;;;;51.30;26.73;;;;;;;;;;5025708;28;20472;-80
2023/12/07 10:10:11;;;;;;;47.37;24.80;;;;;;;;;;5026186;28;20751;-80
2023/12/07 10:15:42;;;;;;;43.90;25.33;;;;;;;;;;5019750;28;20471;-80
2023/12/07 10:18:24;;;;;;;44.67;26.07;;;;;;;;;;5029422;28;20518;-81
2023/12/07 10:20:56;;;;;;;49.93;27.13;;;;;;;;;;5023439;28;20496;-80
2023/12/07 10:23:31;;;;;;;44.67;24.97;;;;;;;;;;4990776;28;20455;-77
2023/12/07 10:26:06;;;;;;;47.50;28.90;;;;;;;;;;5461777;23;20553;-79
2023/12/07 10:28:37;;;;;;;46.03;27.03;;;;;;;;;;5025616;28;20499;-77
2023/12/07 10:31:11;;;;;;;52.80;29.47;;;;;;;;;;5023807;28;20458;-77
2023/12/07 10:33:40;;;;;;;43.07;25.40;;;;;;;;;;5012243;28;20494;-78
2023/12/07 10:39:09;;;;;;;122.60;68.40;;;;;;;;;;5024691;28;20460;-77
2023/12/07 10:41:46;;;;;;;40.73;26.07;;;;;;;;;;5007121;28;20628;-77
2023/12/07 10:44:16;;;;;;;38.93;24.23;;;;;;;;;;4988023;28;20517;-77
2023/12/07 10:46:49;;;;;;;37.80;23.37;;;;;;;;;;5009588;28;20462;-78
2023/12/07 10:49:20;;;;;;;43.07;24.20;;;;;;;;;;5025632;28;20468;-77
2023/12/07 10:51:56;;;;;;;69.77;35.93;;;;;;;;;;5027937;28;20455;-78
2023/12/07 10:54:32;;;;;;;40.07;23.10;;;;;;;;;;5021127;28;20515;-77
2023/12/07 10:57:06;;;;;;;37.87;23.53;;;;;;;;;;5022982;28;20460;-78
2023/12/07 10:59:39;;;;;;;41.67;23.73;;;;;;;;;;5023572;28;20458;-78
2023/12/07 11:02:19;;;;;;;39.67;25.80;;;;;;;;;;5022436;28;20458;-79
2023/12/07 11:04:50;;;;;;;35.47;20.33;;;;;;;;;;5022611;28;20457;-78
2023/12/07 11:07:23;;;;;;;35.40;22.17;;;;;;;;;;5018680;28;20467;-77
2023/12/07 11:09:55;;;;;;;44.50;25.40;;;;;;;;;;5023406;28;20448;-78
2023/12/07 11:12:32;;;;;;;36.67;22.80;;;;;;;;;;5023314;28;20488;-78
2023/12/07 11:15:03;;;;;;;36.47;22.90;;;;;;;;;;5020482;28;20478;-79
2023/12/07 11:17:50;;;;;;;39.43;22.70;;;;;;;;;;5016465;28;20540;-77
2023/12/07 11:20:55;;;;;;;42.00;25.97;;;;;;;;;;5283753;22;20493;-76
2023/12/07 11:27:18;;;;;;;;;;;;;;;;;;;;;
2023/12/07 11:33:29;;;;;;;30.30;19.90;;;;;;;;;;4959431;28;20477;-76
2023/12/07 11:39:41;;;;;;;37.50;21.57;;;;;;;;;;5011649;28;20468;-76
2023/12/07 11:45:48;;;;;;;35.30;19.27;;;;;;;;;;5037941;28;20457;-76
2023/12/07 12:03:51;;;;;;;37.43;22.47;;;;;;;;;;5018698;28;20488;-77
2023/12/07 12:06:56;;;;;;;34.13;21.10;;;;;;;;;;5035070;28;20449;-77
2023/12/07 12:29:03;;;;;;;;;;;;;;;;;;;;;
2023/12/07 12:35:13;;;;;;;;;;;;;;;;;;;;;
2023/12/07 12:37:45;;;;;;;33.27;21.00;;;;;;;;;;5028499;28;20449;-77
2023/12/07 12:40:19;;;;;;;31.57;20.40;;;;;;;;;;5032217;28;20489;-76
2023/12/07 12:42:53;;;;;;;34.40;22.40;;;;;;;;;;5034197;28;20511;-76
2023/12/07 12:51:51;;;;;;;194.83;118.50;;;;;;;;;;5002912;28;20454;-77
2023/12/07 13:03:24;;;;;;;33.00;20.63;;;;;;;;;;5003647;28;20913;-76
2023/12/07 13:09:04;;;;;;;29.40;19.13;;;;;;;;;;5020561;28;20469;-77
2023/12/07 13:18:01;;;;;;;26.77;17.30;;;;;;;;;;5015867;28;20438;-76
2023/12/07 13:20:49;;;;;;;34.20;21.33;;;;;;;;;;4984588;28;20480;-75
2023/12/07 13:23:27;;;;;;;34.03;20.90;;;;;;;;;;5036951;28;20479;-76
2023/12/07 13:26:29;;;;;;;36.87;21.63;;;;;;;;;;5042203;28;20445;-75
2023/12/07 13:42:14;;;;;;;30.60;19.13;;;;;;;;;;5041813;28;20487;-75
2023/12/07 13:44:58;;;;;;;28.67;19.00;;;;;;;;;;5010941;28;20546;-77
2023/12/07 13:47:38;;;;;;;30.10;19.80;;;;;;;;;;5002162;28;20443;-77
2023/12/07 13:50:35;;;;;;;30.20;19.33;;;;;;;;;;4997876;28;20454;-77
2023/12/07 13:53:06;;;;;;;34.00;19.63;;;;;;;;;;5009663;28;20571;-77
2023/12/07 13:58:38;;;;;;;39.40;22.97;;;;;;;;;;5016369;28;20511;-77
2023/12/07 14:01:55;;;;;;;29.37;19.10;;;;;;;;;;5021393;28;21184;-79
2023/12/07 14:13:12;;;;;;;32.63;20.50;;;;;;;;;;5016572;28;20756;-77
2023/12/07 14:16:01;;;;;;;32.60;19.47;;;;;;;;;;5015340;28;20471;-78
2023/12/07 14:21:50;;;;;;;33.90;20.60;;;;;;;;;;4952692;28;20494;-78
2023/12/07 14:27:15;;;;;;;30.50;20.07;;;;;;;;;;4997710;28;20454;-77
2023/12/07 14:36:16;;;;;;;30.47;20.57;;;;;;;;;;4952443;29;20452;-77
2023/12/07 14:38:52;;;;;;;30.10;19.57;;;;;;;;;;4951147;29;20851;-76
2023/12/07 14:41:22;;;;;;;35.47;20.90;;;;;;;;;;5004191;22;20956;-78
2023/12/07 14:43:50;;;;;;;32.70;20.07;;;;;;;;;;5013329;28;20466;-78
2023/12/07 14:46:17;;;;;;;28.63;19.10;;;;;;;;;;5016702;28;20466;-78
2023/12/07 14:48:45;;;;;;;42.37;27.70;;;;;;;;;;5015149;28;20477;-78
2023/12/07 14:51:12;;;;;;;37.03;21.20;;;;;;;;;;5018599;28;20466;-79
2023/12/07 14:53:40;;;;;;;30.23;18.90;;;;;;;;;;5018429;28;20442;-78
2023/12/07 14:56:10;;;;;;;36.90;20.40;;;;;;;;;;5018411;28;20514;-78
2023/12/07 14:58:39;;;;;;;42.53;26.40;;;;;;;;;;4996888;28;20483;-79
2023/12/07 15:01:07;;;;;;;35.70;21.57;;;;;;;;;;5013137;28;20486;-77
2023/12/07 15:03:40;;;;;;;39.83;23.73;;;;;;;;;;5002651;28;20469;-78
2023/12/07 15:06:08;;;;;;;40.50;23.07;;;;;;;;;;5022086;28;20469;-77
2023/12/07 15:08:36;;;;;;;33.67;19.30;;;;;;;;;;5021183;28;20462;-78
2023/12/07 15:11:04;;;;;;;35.53;19.90;;;;;;;;;;5004113;28;21164;-78
2023/12/07 15:13:32;;;;;;;45.43;27.47;;;;;;;;;;4997141;28;20558;-78
2023/12/07 15:16:00;;;;;;;35.00;21.20;;;;;;;;;;4998472;28;20455;-79
2023/12/07 15:18:30;;;;;;;32.13;21.00;;;;;;;;;;4995314;28;20451;-79
2023/12/07 15:20:58;;;;;;;32.13;20.80;;;;;;;;;;4991659;28;21163;-78
2023/12/07 15:23:26;;;;;;;34.97;21.97;;;;;;;;;;4990447;28;20465;-80
2023/12/07 15:25:58;;;;;;;32.80;19.33;;;;;;;;;;4996448;28;20491;-79
2023/12/07 15:28:30;;;;;;;35.83;21.93;;;;;;;;;;4997726;28;20937;-81
2023/12/07 15:30:59;;;;;;;36.63;21.03;;;;;;;;;;4994604;28;20581;-80
2023/12/07 15:33:27;;;;;;;33.20;20.43;;;;;;;;;;4997169;28;20686;-80
2023/12/07 15:35:54;;;;;;;35.63;19.30;;;;;;;;;;4997323;28;20486;-78
2023/12/07 15:38:22;;;;;;;34.03;20.67;;;;;;;;;;4996048;28;20451;-78
2023/12/07 15:40:51;;;;;;;40.00;23.73;;;;;;;;;;4996167;28;20490;-78
2023/12/07 15:43:19;;;;;;;42.43;23.90;;;;;;;;;;5000958;28;20574;-80
2023/12/07 15:45:46;;;;;;;35.83;21.70;;;;;;;;;;5002591;28;20455;-79
2023/12/07 15:48:15;;;;;;;38.10;22.27;;;;;;;;;;4997190;28;20479;-78
2023/12/07 15:50:43;;;;;;;34.27;20.73;;;;;;;;;;5009754;28;20457;-78
2023/12/07 15:53:11;;;;;;;34.80;21.40;;;;;;;;;;5018692;28;20487;-77
2023/12/07 15:55:38;;;;;;;43.43;25.37;;;;;;;;;;5004582;28;20495;-77
2023/12/07 15:58:06;;;;;;;33.67;20.20;;;;;;;;;;5021958;28;20525;-78
2023/12/07 16:00:33;;;;;;;36.27;21.10;;;;;;;;;;5021772;28;20453;-77
2023/12/07 16:03:02;;;;;;;41.37;22.90;;;;;;;;;;5019019;28;20548;-76
2023/12/07 16:05:32;;;;;;;36.17;21.23;;;;;;;;;;5021505;28;20458;-78
2023/12/07 16:08:00;;;;;;;42.30;23.67;;;;;;;;;;5021764;28;20439;-78
2023/12/07 16:10:27;;;;;;;37.10;23.00;;;;;;;;;;5021790;28;20506;-77
2023/12/07 16:12:56;;;;;;;42.40;24.60;;;;;;;;;;5017689;28;20473;-77
2023/12/07 16:15:29;;;;;;;40.10;23.10;;;;;;;;;;5007163;28;20461;-79
2023/12/07 16:17:58;;;;;;;42.37;22.90;;;;;;;;;;5013533;28;20679;-78
2023/12/07 16:20:25;;;;;;;39.57;23.33;;;;;;;;;;5021920;28;20495;-78
2023/12/07 16:22:54;;;;;;;34.60;21.20;;;;;;;;;;5019815;28;20486;-78
2023/12/07 16:25:22;;;;;;;40.13;23.20;;;;;;;;;;5022731;28;20474;-78
2023/12/07 16:27:50;;;;;;;37.80;22.10;;;;;;;;;;5023236;28;20469;-79
2023/12/07 16:30:18;;;;;;;34.60;24.03;;;;;;;;;;5020901;28;20472;-79
2023/12/07 16:32:49;;;;;;;37.60;22.70;;;;;;;;;;5021323;28;20453;-78
2023/12/07 16:35:17;;;;;;;38.07;24.73;;;;;;;;;;5018942;28;20489;-80
2023/12/07 16:37:44;;;;;;;37.73;22.23;;;;;;;;;;5022241;28;20457;-78
2023/12/07 16:40:15;;;;;;;40.37;23.47;;;;;;;;;;5018489;28;20677;-79
2023/12/07 16:42:43;;;;;;;52.93;28.20;;;;;;;;;;5015248;28;20493;-78